createdAt,value
2023-04-13T00:01:52.544Z,11.583032
2023-04-13T00:06:54.044Z,11.481084
2023-04-13T00:11:55.363Z,11.489036
2023-04-13T00:16:56.859Z,11.204984
2023-04-13T00:21:58.229Z,11.972112
2023-04-13T00:26:59.516Z,12.001856
2023-04-13T00:32:00.747Z,11.897696
2023-04-13T00:37:02.344Z,11.576248
2023-04-13T00:42:04.186Z,11.322212
2023-04-13T00:47:05.762Z,11.362202
2023-04-13T00:52:07.373Z,12.147432
2023-04-13T00:57:09.144Z,11.496812
2023-04-13T01:02:10.562Z,11.795748
2023-04-13T01:07:11.996Z,11.917996
2023-04-13T01:12:13.733Z,11.774566
2023-04-13T01:17:15.137Z,11.093158
2023-04-13T01:22:16.384Z,11.849974
2023-04-13T01:27:17.899Z,11.44826
2023-04-13T01:32:19.452Z,11.343828
2023-04-13T01:37:20.857Z,11.584796
2023-04-13T01:42:22.225Z,11.42355
2023-04-13T01:47:23.567Z,11.485332
2023-04-13T01:52:24.999Z,11.258056
2023-04-13T01:57:26.355Z,11.30042
2023-04-13T02:02:27.788Z,11.072248
2023-04-13T02:07:29.310Z,10.985756
2023-04-13T02:12:30.745Z,11.211268
2023-04-13T02:17:32.253Z,11.102264
2023-04-13T02:22:33.563Z,10.91514
2023-04-13T02:27:34.941Z,10.933066
2023-04-13T02:32:36.274Z,10.687864
2023-04-13T02:37:37.821Z,10.715668
2023-04-13T02:42:39.229Z,11.093268
2023-04-13T02:47:41.013Z,11.089292
2023-04-13T02:52:42.832Z,10.897934
2023-04-13T02:57:44.346Z,11.507506
2023-04-13T03:02:45.633Z,10.728898
2023-04-13T03:07:46.976Z,11.234324
2023-04-13T03:12:48.588Z,10.510442
2023-04-13T03:17:49.848Z,10.486614
2023-04-13T03:22:51.268Z,10.489708
2023-04-13T03:27:52.794Z,10.251386
2023-04-13T03:32:54.068Z,10.742414
2023-04-13T03:37:55.488Z,10.702424
2023-04-13T03:42:56.773Z,10.938806
2023-04-13T03:47:58.082Z,11.029112
2023-04-13T03:52:59.326Z,10.664918
2023-04-13T03:58:00.876Z,10.811986
2023-04-13T04:03:02.204Z,10.37761
2023-04-13T04:08:03.567Z,10.896876
2023-04-13T04:13:04.850Z,10.211668
2023-04-13T04:18:06.475Z,10.604996
2023-04-13T04:23:10.525Z,10.34153
2023-04-13T04:28:11.959Z,10.283724
2023-04-13T04:33:13.262Z,10.254318
2023-04-13T04:38:14.720Z,10.334908
2023-04-13T04:43:16.455Z,10.41391
2023-04-13T04:48:17.729Z,10.2958
2023-04-13T04:53:19.113Z,10.963964
2023-04-13T04:58:20.672Z,10.769946
2023-04-13T05:03:21.975Z,10.596676
2023-04-13T05:08:23.260Z,11.192732
2023-04-13T05:13:25.223Z,11.675102
2023-04-13T05:18:26.488Z,11.68068
2023-04-13T05:23:27.780Z,11.59815
2023-04-13T05:28:29.322Z,12.115542
2023-04-13T05:33:30.706Z,11.963564
2023-04-13T05:38:31.977Z,12.323862
2023-04-13T05:43:33.440Z,12.120848
2023-04-13T05:48:34.802Z,12.881692
2023-04-13T05:53:36.202Z,12.340458
2023-04-13T05:58:37.745Z,12.768712
2023-04-13T06:03:39.429Z,13.40264
2023-04-13T06:08:40.868Z,13.74033
2023-04-13T06:13:42.443Z,14.485312
2023-04-13T06:18:43.823Z,14.54278
2023-04-13T06:23:45.299Z,15.598816
2023-04-13T06:28:46.796Z,15.129758
2023-04-13T06:33:48.040Z,15.511876
2023-04-13T06:38:49.406Z,15.846772
2023-04-13T06:43:50.751Z,16.322358
2023-04-13T06:48:52.171Z,16.555212
2023-04-13T06:53:53.560Z,17.02579
2023-04-13T06:58:56.306Z,16.69936
2023-04-13T07:03:59.207Z,18.12715
2023-04-13T07:09:00.817Z,18.176842
2023-04-13T07:14:02.315Z,17.756402
2023-04-13T07:19:03.765Z,18.793592
2023-04-13T07:24:05.141Z,19.342576
2023-04-13T07:29:06.685Z,19.280346
2023-04-13T07:34:07.938Z,19.606952
2023-04-13T07:39:09.347Z,19.72612
2023-04-13T07:44:11.421Z,19.982734
2023-04-13T07:49:13.141Z,20.445362
2023-04-13T07:54:16.680Z,21.27084
2023-04-13T07:59:18.384Z,20.977764
2023-04-13T08:04:19.895Z,21.25362
2023-04-13T08:09:21.430Z,20.768114
2023-04-13T08:14:22.704Z,21.236346
2023-04-13T08:19:24.166Z,22.017574
2023-04-13T08:24:25.595Z,21.923808
2023-04-13T08:29:27.660Z,21.488876
2023-04-13T08:34:29.202Z,21.982768
2023-04-13T08:39:30.489Z,22.094378
2023-04-13T08:44:33.720Z,22.60549
2023-04-13T08:49:34.995Z,23.269708
2023-04-13T08:54:36.379Z,23.531886
2023-04-13T08:59:37.723Z,23.020774
2023-04-13T09:04:39.424Z,23.914128
2023-04-13T09:09:41.352Z,23.68966
2023-04-13T09:14:42.905Z,23.698928
2023-04-13T09:19:44.548Z,23.89319
2023-04-13T09:24:46.427Z,24.831962
2023-04-13T09:29:47.785Z,25.074926
2023-04-13T09:34:49.122Z,24.709008
2023-04-13T09:39:50.409Z,24.146888
2023-04-13T09:44:52.123Z,25.43486
2023-04-13T09:49:53.777Z,24.028438
2023-04-13T09:54:55.396Z,24.653834
2023-04-13T09:59:57.005Z,25.089242
2023-04-13T10:04:58.748Z,24.337174
2023-04-13T10:10:00.761Z,25.537052
2023-04-13T10:15:02.472Z,25.679832
2023-04-13T10:20:04.303Z,24.794198
2023-04-13T10:25:06.373Z,25.055264
2023-04-13T10:30:08.090Z,24.765308
2023-04-13T10:35:09.796Z,24.494296
2023-04-13T10:40:11.409Z,24.508178
2023-04-13T10:45:13.038Z,25.116408
2023-04-13T10:50:14.669Z,25.449624
2023-04-13T10:55:16.545Z,25.07517
2023-04-13T11:00:18.271Z,25.590218
2023-04-13T11:05:20.202Z,25.120194
2023-04-13T11:10:21.834Z,25.30793
2023-04-13T11:15:23.668Z,25.560202
2023-04-13T11:20:25.361Z,25.57232
2023-04-13T11:25:27.235Z,26.022342
2023-04-13T11:30:29.150Z,26.209942
2023-04-13T11:35:30.734Z,26.179926
2023-04-13T11:40:32.087Z,25.596406
2023-04-13T11:45:33.712Z,24.885806
2023-04-13T11:50:34.964Z,24.506224
2023-04-13T11:55:51.814Z,25.622934
2023-04-13T12:01:02.156Z,25.5145
2023-04-13T12:06:04.957Z,25.418562
2023-04-13T12:11:36.502Z,24.78052
2023-04-13T12:17:02.952Z,25.964522
2023-04-13T12:22:06.910Z,25.55339
2023-04-13T12:27:17.090Z,24.43094
2023-04-13T12:32:19.970Z,24.474444
2023-04-13T12:37:21.607Z,24.87742
2023-04-13T12:42:26.095Z,24.697094
2023-04-13T12:47:29.497Z,24.152234
2023-04-13T12:52:31.491Z,24.691802
2023-04-13T12:57:33.191Z,24.708574
2023-04-13T13:02:35.773Z,24.84123
2023-04-13T13:07:37.673Z,24.91779
2023-04-13T13:12:39.071Z,25.894096
2023-04-13T13:17:40.805Z,25.054138
2023-04-13T13:22:44.443Z,24.827552
2023-04-13T13:32:54.866Z,25.101156
2023-04-13T13:37:56.846Z,25.059036
2023-04-13T13:42:58.780Z,24.515492
2023-04-13T13:48:00.976Z,24.957956
2023-04-13T13:53:04.372Z,24.253694
2023-04-13T13:58:06.995Z,24.31838
2023-04-13T14:03:08.997Z,24.309166
2023-04-13T14:08:10.962Z,24.086652
2023-04-13T14:13:13.087Z,23.597604
2023-04-13T14:18:15.390Z,23.950264
2023-04-13T14:23:16.934Z,24.340702
2023-04-13T14:28:18.680Z,23.943262
2023-04-13T14:33:20.369Z,23.470294
2023-04-13T14:38:21.950Z,24.061304
2023-04-13T14:43:23.763Z,24.054926
2023-04-13T14:48:25.435Z,23.435026
2023-04-13T14:53:29.577Z,23.14921
2023-04-13T14:58:31.804Z,23.253818
2023-04-13T15:03:33.842Z,22.901158
2023-04-13T15:08:35.297Z,22.841126
2023-04-13T15:13:36.671Z,22.74314
2023-04-13T15:18:38.192Z,22.784636
2023-04-13T15:23:39.791Z,22.002064
2023-04-13T15:28:42.226Z,22.15213
2023-04-13T15:33:46.983Z,22.264744
2023-04-13T15:38:50.607Z,21.768586
2023-04-13T15:43:52.093Z,21.916888
2023-04-13T15:48:54.006Z,21.585464
2023-04-13T15:53:57.275Z,21.281994
2023-04-13T15:58:59.109Z,21.177888
2023-04-13T16:04:00.953Z,20.4763
2023-04-13T16:09:02.526Z,20.664334
2023-04-13T16:14:04.145Z,20.987412
2023-04-13T16:19:05.823Z,20.940624
2023-04-13T16:24:07.178Z,19.794388
2023-04-13T16:29:08.830Z,20.25783
2023-04-13T16:34:24.341Z,20.37883
2023-04-13T16:39:27.561Z,20.16937
2023-04-13T16:44:33.453Z,20.067218
2023-04-13T16:49:35.377Z,19.54156
2023-04-13T16:54:37.267Z,19.379132
2023-04-13T16:59:38.598Z,19.674406
2023-04-13T17:04:41.152Z,19.638216
2023-04-13T17:09:43.933Z,19.764006
2023-04-13T17:14:47.721Z,19.30454
2023-04-13T17:20:03.628Z,19.503158
2023-04-13T17:25:09.992Z,19.52126
2023-04-13T17:30:15.883Z,19.28998
2023-04-13T17:35:22.212Z,19.224982
2023-04-13T17:40:23.953Z,19.41117
2023-04-13T17:45:25.520Z,18.675604
2023-04-13T17:50:34.041Z,18.899
2023-04-13T17:55:35.544Z,19.270196
2023-04-13T18:00:36.988Z,18.686894
2023-04-13T18:05:41.405Z,18.497558
2023-04-13T18:10:43.842Z,18.476186
2023-04-13T18:15:49.130Z,18.70102
2023-04-13T18:20:52.284Z,18.825738
2023-04-13T18:25:54.698Z,18.2886
2023-04-13T18:30:58.431Z,18.17429
2023-04-13T18:36:06.122Z,18.7033
2023-04-13T18:41:09.624Z,18.401594
2023-04-13T18:46:19.328Z,18.607702
2023-04-13T18:51:25.362Z,18.48255
2023-04-13T18:56:33.338Z,18.802344
2023-04-13T19:01:36.959Z,18.68954
2023-04-13T19:06:38.610Z,18.999374
2023-04-13T19:11:40.270Z,18.590428
2023-04-13T19:16:41.592Z,18.197792
2023-04-13T19:21:43.397Z,18.456686
2023-04-13T19:26:44.876Z,18.512294
2023-04-13T19:31:46.517Z,17.809038
2023-04-13T19:36:48.510Z,17.911692
2023-04-13T19:41:50.064Z,17.470776
2023-04-13T19:46:51.851Z,17.538556
2023-04-13T19:51:53.958Z,17.390892
2023-04-13T19:56:55.517Z,17.49417
2023-04-13T20:01:57.295Z,17.186982
2023-04-13T20:06:59.454Z,17.299962
2023-04-13T20:12:01.126Z,16.675898
2023-04-13T20:17:03.289Z,16.467402
2023-04-13T20:22:05.314Z,16.393244
2023-04-13T20:27:07.121Z,16.598742
2023-04-13T20:32:08.971Z,16.496346
2023-04-13T20:37:10.738Z,15.806958
2023-04-13T20:42:12.380Z,16.269056
2023-04-13T20:47:14.430Z,16.502344
2023-04-13T20:52:15.911Z,16.332684
2023-04-13T20:57:17.706Z,16.354762
2023-04-13T21:02:22.738Z,15.580198
2023-04-13T21:07:26.649Z,15.824518
2023-04-13T21:12:28.636Z,15.88649
2023-04-13T21:17:30.400Z,15.729368
2023-04-13T21:22:33.230Z,15.562272
2023-04-13T21:27:34.986Z,15.074678
2023-04-13T21:32:36.389Z,15.36394
2023-04-13T21:37:40.166Z,14.953392
2023-04-13T21:42:45.187Z,15.350248
2023-04-13T21:47:46.872Z,14.814902
2023-04-13T21:52:48.854Z,15.250064
2023-04-13T21:57:50.490Z,15.133556
2023-04-13T22:02:52.304Z,15.655658
2023-04-13T22:07:54.220Z,15.590958
2023-04-13T22:12:56.138Z,15.63624
2023-04-13T22:17:57.692Z,15.694508
2023-04-13T22:22:59.898Z,15.55698
2023-04-13T22:28:02.435Z,15.579316
2023-04-13T22:33:03.906Z,15.903086
2023-04-13T22:38:06.309Z,15.592288
2023-04-13T22:43:08.016Z,15.505348
2023-04-13T22:48:09.647Z,16.01403
2023-04-13T22:53:11.415Z,15.629984
2023-04-13T22:58:12.876Z,15.859568
2023-04-13T23:03:14.621Z,15.359964
2023-04-13T23:08:16.402Z,15.513544
2023-04-13T23:13:17.899Z,15.159148
2023-04-13T23:18:19.319Z,14.722494
2023-04-13T23:23:21.260Z,15.1866
2023-04-13T23:28:22.917Z,14.967696
2023-04-13T23:33:24.573Z,15.102482
2023-04-13T23:38:26.588Z,14.807046
2023-04-13T23:43:33.020Z,15.066116
2023-04-13T23:48:36.296Z,14.932836
2023-04-13T23:53:37.787Z,14.442948
2023-04-13T23:58:39.310Z,14.511528
